sensor_id;sensor_type;location;lat;lon;timestamp;P1;durP1;ratioP1;P2;durP2;ratioP2
18693;SDS011;9477;51.414;10.362;2023-03-23T00:00:18;1.70;;;1.03;;
18693;SDS011;9477;51.414;10.362;2023-03-23T00:02:22;2.30;;;1.00;;
18693;SDS011;9477;51.414;10.362;2023-03-23T00:04:25;2.30;;;1.03;;
18693;SDS011;9477;51.414;10.362;2023-03-23T00:06:30;2.10;;;1.03;;
18693;SDS011;9477;51.414;10.362;2023-03-23T00:08:33;2.30;;;1.13;;
18693;SDS011;9477;51.414;10.362;2023-03-23T00:10:37;2.00;;;1.20;;
18693;SDS011;9477;51.414;10.362;2023-03-23T00:12:41;2.70;;;1.00;;
18693;SDS011;9477;51.414;10.362;2023-03-23T00:14:45;1.10;;;1.00;;
18693;SDS011;9477;51.414;10.362;2023-03-23T00:16:46;2.60;;;1.20;;
18693;SDS011;9477;51.414;10.362;2023-03-23T00:18:49;3.73;;;1.43;;
18693;SDS011;9477;51.414;10.362;2023-03-23T00:20:53;1.83;;;1.30;;
18693;SDS011;9477;51.414;10.362;2023-03-23T00:22:56;1.73;;;0.93;;
18693;SDS011;9477;51.414;10.362;2023-03-23T00:25:00;2.13;;;1.00;;
18693;SDS011;9477;51.414;10.362;2023-03-23T00:27:01;1.00;;;0.97;;
18693;SDS011;9477;51.414;10.362;2023-03-23T00:29:06;2.30;;;1.00;;
18693;SDS011;9477;51.414;10.362;2023-03-23T00:31:09;4.47;;;1.30;;
18693;SDS011;9477;51.414;10.362;2023-03-23T00:33:11;4.30;;;1.20;;
18693;SDS011;9477;51.414;10.362;2023-03-23T00:35:13;2.53;;;1.10;;
18693;SDS011;9477;51.414;10.362;2023-03-23T00:37:15;2.60;;;1.13;;
18693;SDS011;9477;51.414;10.362;2023-03-23T00:39:17;2.00;;;1.20;;
18693;SDS011;9477;51.414;10.362;2023-03-23T00:41:19;2.37;;;1.30;;
18693;SDS011;9477;51.414;10.362;2023-03-23T00:43:21;2.53;;;1.20;;
18693;SDS011;9477;51.414;10.362;2023-03-23T00:45:26;4.33;;;1.30;;
18693;SDS011;9477;51.414;10.362;2023-03-23T00:47:27;2.63;;;1.20;;
18693;SDS011;9477;51.414;10.362;2023-03-23T00:49:30;1.23;;;1.10;;
18693;SDS011;9477;51.414;10.362;2023-03-23T00:51:34;2.13;;;1.10;;
18693;SDS011;9477;51.414;10.362;2023-03-23T00:53:36;2.83;;;1.10;;
18693;SDS011;9477;51.414;10.362;2023-03-23T00:55:39;1.73;;;1.00;;
18693;SDS011;9477;51.414;10.362;2023-03-23T00:57:42;1.30;;;1.00;;
18693;SDS011;9477;51.414;10.362;2023-03-23T00:59:43;2.40;;;1.10;;
18693;SDS011;9477;51.414;10.362;2023-03-23T01:01:46;2.80;;;1.20;;
18693;SDS011;9477;51.414;10.362;2023-03-23T01:03:48;2.53;;;1.20;;
18693;SDS011;9477;51.414;10.362;2023-03-23T01:05:50;2.23;;;1.20;;
18693;SDS011;9477;51.414;10.362;2023-03-23T01:07:53;3.47;;;1.20;;
18693;SDS011;9477;51.414;10.362;2023-03-23T01:09:55;3.53;;;1.37;;
18693;SDS011;9477;51.414;10.362;2023-03-23T01:11:57;3.10;;;1.10;;
18693;SDS011;9477;51.414;10.362;2023-03-23T01:13:59;2.03;;;1.07;;
18693;SDS011;9477;51.414;10.362;2023-03-23T01:16:01;3.23;;;1.00;;
18693;SDS011;9477;51.414;10.362;2023-03-23T01:18:05;1.63;;;1.00;;
18693;SDS011;9477;51.414;10.362;2023-03-23T01:20:07;3.33;;;0.90;;
18693;SDS011;9477;51.414;10.362;2023-03-23T01:22:10;4.80;;;1.10;;
18693;SDS011;9477;51.414;10.362;2023-03-23T01:24:12;2.27;;;1.00;;
18693;SDS011;9477;51.414;10.362;2023-03-23T01:26:15;1.97;;;1.10;;
18693;SDS011;9477;51.414;10.362;2023-03-23T01:28:18;2.43;;;1.20;;
18693;SDS011;9477;51.414;10.362;2023-03-23T01:30:20;2.70;;;1.00;;
18693;SDS011;9477;51.414;10.362;2023-03-23T01:32:22;5.20;;;1.10;;
18693;SDS011;9477;51.414;10.362;2023-03-23T01:34:26;2.40;;;1.20;;
18693;SDS011;9477;51.414;10.362;2023-03-23T01:36:28;1.47;;;1.00;;
18693;SDS011;9477;51.414;10.362;2023-03-23T01:38:32;2.60;;;1.10;;
18693;SDS011;9477;51.414;10.362;2023-03-23T01:40:35;3.00;;;1.10;;
18693;SDS011;9477;51.414;10.362;2023-03-23T01:42:37;2.30;;;1.00;;
18693;SDS011;9477;51.414;10.362;2023-03-23T01:47:27;1.57;;;1.07;;
18693;SDS011;9477;51.414;10.362;2023-03-23T01:49:31;3.10;;;1.07;;
18693;SDS011;9477;51.414;10.362;2023-03-23T01:51:35;3.77;;;1.33;;
18693;SDS011;9477;51.414;10.362;2023-03-23T01:53:42;2.27;;;1.10;;
18693;SDS011;9477;51.414;10.362;2023-03-23T01:55:47;2.27;;;1.10;;
18693;SDS011;9477;51.414;10.362;2023-03-23T01:57:51;2.37;;;1.07;;
18693;SDS011;9477;51.414;10.362;2023-03-23T01:59:55;1.67;;;0.83;;
18693;SDS011;9477;51.414;10.362;2023-03-23T02:02:08;1.43;;;1.10;;
18693;SDS011;9477;51.414;10.362;2023-03-23T02:04:11;1.50;;;1.10;;
18693;SDS011;9477;51.414;10.362;2023-03-23T02:06:15;3.60;;;1.17;;
18693;SDS011;9477;51.414;10.362;2023-03-23T02:08:17;3.10;;;1.20;;
18693;SDS011;9477;51.414;10.362;2023-03-23T02:10:20;3.43;;;1.00;;
18693;SDS011;9477;51.414;10.362;2023-03-23T02:12:21;2.30;;;1.27;;
18693;SDS011;9477;51.414;10.362;2023-03-23T02:14:23;3.53;;;1.23;;
18693;SDS011;9477;51.414;10.362;2023-03-23T02:16:29;1.53;;;1.10;;
18693;SDS011;9477;51.414;10.362;2023-03-23T02:18:37;1.43;;;0.87;;
18693;SDS011;9477;51.414;10.362;2023-03-23T02:21:02;1.30;;;1.00;;
18693;SDS011;9477;51.414;10.362;2023-03-23T02:23:27;3.50;;;1.07;;
18693;SDS011;9477;51.414;10.362;2023-03-23T02:25:46;2.73;;;1.10;;
18693;SDS011;9477;51.414;10.362;2023-03-23T02:28:05;3.67;;;1.20;;
18693;SDS011;9477;51.414;10.362;2023-03-23T02:30:27;2.73;;;1.03;;
18693;SDS011;9477;51.414;10.362;2023-03-23T02:32:45;2.00;;;1.20;;
18693;SDS011;9477;51.414;10.362;2023-03-23T02:35:10;2.53;;;1.20;;
18693;SDS011;9477;51.414;10.362;2023-03-23T02:37:18;1.20;;;1.00;;
18693;SDS011;9477;51.414;10.362;2023-03-23T02:39:25;1.87;;;1.00;;
18693;SDS011;9477;51.414;10.362;2023-03-23T02:41:31;4.23;;;1.30;;
18693;SDS011;9477;51.414;10.362;2023-03-23T02:43:40;2.30;;;1.13;;
18693;SDS011;9477;51.414;10.362;2023-03-23T02:45:46;3.93;;;1.40;;
18693;SDS011;9477;51.414;10.362;2023-03-23T02:47:48;3.60;;;1.20;;
18693;SDS011;9477;51.414;10.362;2023-03-23T02:49:54;1.43;;;1.03;;
18693;SDS011;9477;51.414;10.362;2023-03-23T02:51:59;2.17;;;1.00;;
18693;SDS011;9477;51.414;10.362;2023-03-23T02:54:03;1.90;;;1.10;;
18693;SDS011;9477;51.414;10.362;2023-03-23T02:56:06;2.13;;;1.10;;
18693;SDS011;9477;51.414;10.362;2023-03-23T02:58:10;1.83;;;1.20;;
18693;SDS011;9477;51.414;10.362;2023-03-23T03:00:14;1.93;;;1.10;;
18693;SDS011;9477;51.414;10.362;2023-03-23T03:02:18;1.20;;;1.10;;
18693;SDS011;9477;51.414;10.362;2023-03-23T03:04:24;1.20;;;1.10;;
18693;SDS011;9477;51.414;10.362;2023-03-23T03:06:31;3.83;;;1.10;;
18693;SDS011;9477;51.414;10.362;2023-03-23T03:08:41;2.83;;;1.10;;
18693;SDS011;9477;51.414;10.362;2023-03-23T03:10:49;3.33;;;1.30;;
18693;SDS011;9477;51.414;10.362;2023-03-23T03:12:57;2.27;;;1.30;;
18693;SDS011;9477;51.414;10.362;2023-03-23T03:15:09;1.43;;;1.10;;
18693;SDS011;9477;51.414;10.362;2023-03-23T03:17:19;3.67;;;1.13;;
18693;SDS011;9477;51.414;10.362;2023-03-23T03:19:26;2.40;;;1.23;;
18693;SDS011;9477;51.414;10.362;2023-03-23T03:21:32;2.07;;;1.30;;
18693;SDS011;9477;51.414;10.362;2023-03-23T03:23:38;1.83;;;1.30;;
18693;SDS011;9477;51.414;10.362;2023-03-23T03:25:42;1.73;;;1.23;;
18693;SDS011;9477;51.414;10.362;2023-03-23T03:27:47;3.50;;;1.30;;
18693;SDS011;9477;51.414;10.362;2023-03-23T03:29:53;3.03;;;1.27;;
18693;SDS011;9477;51.414;10.362;2023-03-23T03:31:58;3.30;;;1.40;;
18693;SDS011;9477;51.414;10.362;2023-03-23T03:34:05;2.20;;;1.50;;
18693;SDS011;9477;51.414;10.362;2023-03-23T03:36:08;1.50;;;1.20;;
18693;SDS011;9477;51.414;10.362;2023-03-23T03:38:18;1.90;;;1.30;;
18693;SDS011;9477;51.414;10.362;2023-03-23T03:40:20;3.10;;;1.57;;
18693;SDS011;9477;51.414;10.362;2023-03-23T03:42:24;6.87;;;1.23;;
18693;SDS011;9477;51.414;10.362;2023-03-23T03:44:26;3.10;;;1.73;;
18693;SDS011;9477;51.414;10.362;2023-03-23T03:46:28;5.77;;;1.57;;
18693;SDS011;9477;51.414;10.362;2023-03-23T03:48:31;3.53;;;1.20;;
18693;SDS011;9477;51.414;10.362;2023-03-23T03:50:33;2.70;;;1.30;;
18693;SDS011;9477;51.414;10.362;2023-03-23T03:52:35;2.67;;;1.50;;
18693;SDS011;9477;51.414;10.362;2023-03-23T03:54:39;3.30;;;1.30;;
18693;SDS011;9477;51.414;10.362;2023-03-23T03:56:41;3.47;;;1.70;;
18693;SDS011;9477;51.414;10.362;2023-03-23T03:58:45;2.70;;;1.30;;
18693;SDS011;9477;51.414;10.362;2023-03-23T04:00:48;2.40;;;1.40;;
18693;SDS011;9477;51.414;10.362;2023-03-23T04:02:50;2.47;;;1.40;;
18693;SDS011;9477;51.414;10.362;2023-03-23T04:04:54;2.83;;;1.50;;
18693;SDS011;9477;51.414;10.362;2023-03-23T04:06:56;5.43;;;1.50;;
18693;SDS011;9477;51.414;10.362;2023-03-23T04:08:58;3.67;;;1.50;;
18693;SDS011;9477;51.414;10.362;2023-03-23T04:11:03;2.63;;;1.60;;
18693;SDS011;9477;51.414;10.362;2023-03-23T04:13:05;2.13;;;1.20;;
18693;SDS011;9477;51.414;10.362;2023-03-23T04:15:07;2.10;;;1.60;;
18693;SDS011;9477;51.414;10.362;2023-03-23T04:17:09;3.27;;;1.43;;
18693;SDS011;9477;51.414;10.362;2023-03-23T04:19:11;3.17;;;1.47;;
18693;SDS011;9477;51.414;10.362;2023-03-23T04:21:13;2.87;;;1.60;;
18693;SDS011;9477;51.414;10.362;2023-03-23T04:23:16;2.17;;;1.23;;
18693;SDS011;9477;51.414;10.362;2023-03-23T04:25:20;2.90;;;1.40;;
18693;SDS011;9477;51.414;10.362;2023-03-23T04:27:23;5.77;;;1.60;;
18693;SDS011;9477;51.414;10.362;2023-03-23T04:29:27;3.40;;;1.40;;
18693;SDS011;9477;51.414;10.362;2023-03-23T04:31:30;2.80;;;1.30;;
18693;SDS011;9477;51.414;10.362;2023-03-23T04:33:31;7.00;;;1.50;;
18693;SDS011;9477;51.414;10.362;2023-03-23T04:35:33;1.97;;;1.30;;
18693;SDS011;9477;51.414;10.362;2023-03-23T04:37:35;4.67;;;1.40;;
18693;SDS011;9477;51.414;10.362;2023-03-23T04:39:36;1.47;;;1.13;;
18693;SDS011;9477;51.414;10.362;2023-03-23T04:41:40;3.40;;;1.50;;
18693;SDS011;9477;51.414;10.362;2023-03-23T04:43:43;5.13;;;1.57;;
18693;SDS011;9477;51.414;10.362;2023-03-23T04:45:45;1.50;;;1.20;;
18693;SDS011;9477;51.414;10.362;2023-03-23T04:47:47;2.13;;;1.40;;
18693;SDS011;9477;51.414;10.362;2023-03-23T04:49:52;4.80;;;1.87;;
18693;SDS011;9477;51.414;10.362;2023-03-23T04:51:54;1.53;;;1.40;;
18693;SDS011;9477;51.414;10.362;2023-03-23T04:53:56;2.53;;;1.70;;
18693;SDS011;9477;51.414;10.362;2023-03-23T04:55:58;2.77;;;1.50;;
18693;SDS011;9477;51.414;10.362;2023-03-23T04:58:01;2.20;;;1.43;;
18693;SDS011;9477;51.414;10.362;2023-03-23T05:00:04;3.30;;;1.30;;
18693;SDS011;9477;51.414;10.362;2023-03-23T05:02:09;3.53;;;1.30;;
18693;SDS011;9477;51.414;10.362;2023-03-23T05:04:11;5.40;;;1.50;;
18693;SDS011;9477;51.414;10.362;2023-03-23T05:06:16;3.37;;;1.50;;
18693;SDS011;9477;51.414;10.362;2023-03-23T05:08:18;3.13;;;1.80;;
18693;SDS011;9477;51.414;10.362;2023-03-23T05:10:21;3.37;;;1.60;;
18693;SDS011;9477;51.414;10.362;2023-03-23T05:12:23;2.57;;;1.30;;
18693;SDS011;9477;51.414;10.362;2023-03-23T05:14:25;3.33;;;1.40;;
18693;SDS011;9477;51.414;10.362;2023-03-23T05:16:28;5.30;;;1.57;;
18693;SDS011;9477;51.414;10.362;2023-03-23T05:18:30;2.47;;;1.53;;
18693;SDS011;9477;51.414;10.362;2023-03-23T05:20:32;3.27;;;1.53;;
18693;SDS011;9477;51.414;10.362;2023-03-23T05:22:34;2.77;;;1.40;;
18693;SDS011;9477;51.414;10.362;2023-03-23T05:24:36;4.53;;;1.60;;
18693;SDS011;9477;51.414;10.362;2023-03-23T05:26:38;2.47;;;1.57;;
18693;SDS011;9477;51.414;10.362;2023-03-23T05:28:39;2.93;;;1.53;;
18693;SDS011;9477;51.414;10.362;2023-03-23T05:30:41;3.13;;;1.60;;
18693;SDS011;9477;51.414;10.362;2023-03-23T05:32:45;2.50;;;1.50;;
18693;SDS011;9477;51.414;10.362;2023-03-23T05:34:50;3.83;;;1.60;;
18693;SDS011;9477;51.414;10.362;2023-03-23T05:36:52;2.20;;;1.60;;
18693;SDS011;9477;51.414;10.362;2023-03-23T05:38:55;3.20;;;1.70;;
18693;SDS011;9477;51.414;10.362;2023-03-23T05:41:00;1.60;;;1.30;;
18693;SDS011;9477;51.414;10.362;2023-03-23T05:43:02;2.00;;;1.53;;
18693;SDS011;9477;51.414;10.362;2023-03-23T05:45:04;3.30;;;1.63;;
18693;SDS011;9477;51.414;10.362;2023-03-23T05:47:06;4.80;;;1.60;;
18693;SDS011;9477;51.414;10.362;2023-03-23T05:49:10;2.87;;;1.70;;
18693;SDS011;9477;51.414;10.362;2023-03-23T05:51:12;3.17;;;1.53;;
18693;SDS011;9477;51.414;10.362;2023-03-23T05:53:14;3.30;;;1.80;;
18693;SDS011;9477;51.414;10.362;2023-03-23T05:55:16;3.17;;;1.50;;
18693;SDS011;9477;51.414;10.362;2023-03-23T05:57:18;2.43;;;1.93;;
18693;SDS011;9477;51.414;10.362;2023-03-23T05:59:21;4.07;;;2.10;;
18693;SDS011;9477;51.414;10.362;2023-03-23T06:01:23;3.20;;;1.53;;
18693;SDS011;9477;51.414;10.362;2023-03-23T06:03:25;3.67;;;1.70;;
18693;SDS011;9477;51.414;10.362;2023-03-23T06:05:28;2.40;;;1.47;;
18693;SDS011;9477;51.414;10.362;2023-03-23T06:07:30;2.87;;;1.70;;
18693;SDS011;9477;51.414;10.362;2023-03-23T06:09:31;3.13;;;1.90;;
18693;SDS011;9477;51.414;10.362;2023-03-23T06:11:33;2.40;;;1.63;;
18693;SDS011;9477;51.414;10.362;2023-03-23T06:13:35;4.63;;;1.87;;
18693;SDS011;9477;51.414;10.362;2023-03-23T06:15:37;1.97;;;1.40;;
18693;SDS011;9477;51.414;10.362;2023-03-23T06:17:38;2.53;;;1.67;;
18693;SDS011;9477;51.414;10.362;2023-03-23T06:19:40;3.13;;;1.90;;
18693;SDS011;9477;51.414;10.362;2023-03-23T06:21:43;4.40;;;1.93;;
18693;SDS011;9477;51.414;10.362;2023-03-23T06:23:45;4.20;;;1.83;;
18693;SDS011;9477;51.414;10.362;2023-03-23T06:25:48;2.63;;;1.90;;
18693;SDS011;9477;51.414;10.362;2023-03-23T06:27:50;3.30;;;1.80;;
18693;SDS011;9477;51.414;10.362;2023-03-23T06:29:52;2.80;;;1.90;;
18693;SDS011;9477;51.414;10.362;2023-03-23T06:31:57;2.00;;;1.57;;
18693;SDS011;9477;51.414;10.362;2023-03-23T06:34:02;4.63;;;1.90;;
18693;SDS011;9477;51.414;10.362;2023-03-23T06:36:04;2.93;;;1.90;;
18693;SDS011;9477;51.414;10.362;2023-03-23T06:38:07;3.63;;;1.93;;
18693;SDS011;9477;51.414;10.362;2023-03-23T06:40:10;2.30;;;1.80;;
18693;SDS011;9477;51.414;10.362;2023-03-23T06:42:11;3.23;;;1.87;;
18693;SDS011;9477;51.414;10.362;2023-03-23T06:44:13;3.10;;;1.83;;
18693;SDS011;9477;51.414;10.362;2023-03-23T06:46:15;2.90;;;1.60;;
18693;SDS011;9477;51.414;10.362;2023-03-23T06:48:17;3.47;;;1.77;;
18693;SDS011;9477;51.414;10.362;2023-03-23T06:50:19;2.50;;;1.70;;
18693;SDS011;9477;51.414;10.362;2023-03-23T06:52:21;2.93;;;1.70;;
18693;SDS011;9477;51.414;10.362;2023-03-23T06:54:24;2.03;;;1.80;;
18693;SDS011;9477;51.414;10.362;2023-03-23T06:56:26;3.17;;;1.77;;
18693;SDS011;9477;51.414;10.362;2023-03-23T06:58:28;3.73;;;2.00;;
18693;SDS011;9477;51.414;10.362;2023-03-23T07:00:30;2.17;;;1.83;;
18693;SDS011;9477;51.414;10.362;2023-03-23T07:02:31;2.57;;;1.70;;
18693;SDS011;9477;51.414;10.362;2023-03-23T07:04:33;3.00;;;1.60;;
18693;SDS011;9477;51.414;10.362;2023-03-23T07:06:35;2.33;;;1.73;;
18693;SDS011;9477;51.414;10.362;2023-03-23T07:08:37;3.77;;;2.60;;
18693;SDS011;9477;51.414;10.362;2023-03-23T07:10:41;4.83;;;2.00;;
18693;SDS011;9477;51.414;10.362;2023-03-23T07:12:43;3.80;;;1.90;;
18693;SDS011;9477;51.414;10.362;2023-03-23T07:14:45;3.67;;;2.00;;
18693;SDS011;9477;51.414;10.362;2023-03-23T07:16:47;3.33;;;1.93;;
18693;SDS011;9477;51.414;10.362;2023-03-23T07:18:49;3.33;;;1.67;;
18693;SDS011;9477;51.414;10.362;2023-03-23T07:20:51;3.90;;;1.67;;
18693;SDS011;9477;51.414;10.362;2023-03-23T07:22:53;4.50;;;1.97;;
18693;SDS011;9477;51.414;10.362;2023-03-23T07:24:55;3.23;;;1.70;;
18693;SDS011;9477;51.414;10.362;2023-03-23T07:26:59;2.57;;;1.70;;
18693;SDS011;9477;51.414;10.362;2023-03-23T07:29:01;3.17;;;1.90;;
18693;SDS011;9477;51.414;10.362;2023-03-23T07:31:03;2.37;;;1.80;;
18693;SDS011;9477;51.414;10.362;2023-03-23T07:33:05;2.37;;;1.60;;
18693;SDS011;9477;51.414;10.362;2023-03-23T07:35:08;1.83;;;1.50;;
18693;SDS011;9477;51.414;10.362;2023-03-23T07:37:10;2.10;;;1.80;;
18693;SDS011;9477;51.414;10.362;2023-03-23T07:39:12;3.20;;;1.73;;
18693;SDS011;9477;51.414;10.362;2023-03-23T07:41:14;3.47;;;1.77;;
18693;SDS011;9477;51.414;10.362;2023-03-23T07:43:17;2.87;;;1.87;;
18693;SDS011;9477;51.414;10.362;2023-03-23T07:45:19;2.33;;;1.50;;
18693;SDS011;9477;51.414;10.362;2023-03-23T07:47:21;3.67;;;1.80;;
18693;SDS011;9477;51.414;10.362;2023-03-23T07:49:22;3.70;;;1.80;;
18693;SDS011;9477;51.414;10.362;2023-03-23T07:51:24;2.50;;;1.80;;
18693;SDS011;9477;51.414;10.362;2023-03-23T07:53:28;2.53;;;1.80;;
18693;SDS011;9477;51.414;10.362;2023-03-23T07:55:29;2.77;;;1.77;;
18693;SDS011;9477;51.414;10.362;2023-03-23T07:57:31;3.03;;;1.70;;
18693;SDS011;9477;51.414;10.362;2023-03-23T07:59:35;3.40;;;1.37;;
18693;SDS011;9477;51.414;10.362;2023-03-23T08:01:36;2.37;;;1.73;;
18693;SDS011;9477;51.414;10.362;2023-03-23T08:03:39;2.13;;;1.50;;
18693;SDS011;9477;51.414;10.362;2023-03-23T08:05:40;2.83;;;1.70;;
18693;SDS011;9477;51.414;10.362;2023-03-23T08:07:43;2.70;;;1.50;;
18693;SDS011;9477;51.414;10.362;2023-03-23T08:09:46;4.03;;;1.80;;
18693;SDS011;9477;51.414;10.362;2023-03-23T08:11:48;4.63;;;1.60;;
18693;SDS011;9477;51.414;10.362;2023-03-23T08:13:50;2.50;;;1.70;;
18693;SDS011;9477;51.414;10.362;2023-03-23T08:15:53;2.67;;;1.90;;
18693;SDS011;9477;51.414;10.362;2023-03-23T08:17:55;2.00;;;1.60;;
18693;SDS011;9477;51.414;10.362;2023-03-23T08:19:57;3.60;;;1.70;;
18693;SDS011;9477;51.414;10.362;2023-03-23T08:21:58;3.17;;;1.50;;
18693;SDS011;9477;51.414;10.362;2023-03-23T08:24:00;4.17;;;1.90;;
18693;SDS011;9477;51.414;10.362;2023-03-23T08:26:02;1.90;;;1.70;;
18693;SDS011;9477;51.414;10.362;2023-03-23T08:28:06;2.93;;;1.70;;
18693;SDS011;9477;51.414;10.362;2023-03-23T08:30:09;2.87;;;1.97;;
18693;SDS011;9477;51.414;10.362;2023-03-23T08:32:14;2.30;;;1.50;;
18693;SDS011;9477;51.414;10.362;2023-03-23T08:34:15;2.30;;;1.70;;
18693;SDS011;9477;51.414;10.362;2023-03-23T08:36:17;2.87;;;1.70;;
18693;SDS011;9477;51.414;10.362;2023-03-23T08:38:20;2.40;;;1.77;;
18693;SDS011;9477;51.414;10.362;2023-03-23T08:40:22;2.27;;;1.97;;
18693;SDS011;9477;51.414;10.362;2023-03-23T08:42:25;4.03;;;1.90;;
18693;SDS011;9477;51.414;10.362;2023-03-23T08:44:27;2.13;;;1.50;;
18693;SDS011;9477;51.414;10.362;2023-03-23T08:46:29;3.63;;;1.90;;
18693;SDS011;9477;51.414;10.362;2023-03-23T08:48:32;3.73;;;1.70;;
18693;SDS011;9477;51.414;10.362;2023-03-23T08:50:35;2.47;;;1.47;;
18693;SDS011;9477;51.414;10.362;2023-03-23T08:52:37;3.73;;;1.70;;
18693;SDS011;9477;51.414;10.362;2023-03-23T08:54:39;2.17;;;1.70;;
18693;SDS011;9477;51.414;10.362;2023-03-23T08:56:41;4.87;;;1.87;;
18693;SDS011;9477;51.414;10.362;2023-03-23T08:58:42;3.47;;;1.53;;
18693;SDS011;9477;51.414;10.362;2023-03-23T09:00:44;2.63;;;2.00;;
18693;SDS011;9477;51.414;10.362;2023-03-23T09:02:48;2.33;;;1.60;;
18693;SDS011;9477;51.414;10.362;2023-03-23T09:04:52;1.77;;;1.40;;
18693;SDS011;9477;51.414;10.362;2023-03-23T09:06:55;3.23;;;1.70;;
18693;SDS011;9477;51.414;10.362;2023-03-23T09:08:57;3.13;;;1.80;;
18693;SDS011;9477;51.414;10.362;2023-03-23T09:11:02;2.43;;;1.70;;
18693;SDS011;9477;51.414;10.362;2023-03-23T09:13:06;3.53;;;1.70;;
18693;SDS011;9477;51.414;10.362;2023-03-23T09:15:09;7.77;;;1.90;;
18693;SDS011;9477;51.414;10.362;2023-03-23T09:17:12;2.53;;;2.10;;
18693;SDS011;9477;51.414;10.362;2023-03-23T09:19:14;5.13;;;2.17;;
18693;SDS011;9477;51.414;10.362;2023-03-23T09:21:17;3.57;;;1.90;;
18693;SDS011;9477;51.414;10.362;2023-03-23T09:23:19;3.17;;;1.70;;
18693;SDS011;9477;51.414;10.362;2023-03-23T09:25:21;3.13;;;1.77;;
18693;SDS011;9477;51.414;10.362;2023-03-23T09:27:25;2.70;;;1.50;;
18693;SDS011;9477;51.414;10.362;2023-03-23T09:29:27;3.30;;;1.70;;
18693;SDS011;9477;51.414;10.362;2023-03-23T09:31:29;2.43;;;1.70;;
18693;SDS011;9477;51.414;10.362;2023-03-23T09:33:32;2.30;;;1.53;;
18693;SDS011;9477;51.414;10.362;2023-03-23T09:35:35;2.33;;;1.70;;
18693;SDS011;9477;51.414;10.362;2023-03-23T09:37:40;3.87;;;1.70;;
18693;SDS011;9477;51.414;10.362;2023-03-23T09:39:43;2.37;;;1.43;;
18693;SDS011;9477;51.414;10.362;2023-03-23T09:41:53;1.87;;;1.57;;
18693;SDS011;9477;51.414;10.362;2023-03-23T09:44:05;3.73;;;1.60;;
18693;SDS011;9477;51.414;10.362;2023-03-23T09:46:14;1.87;;;1.33;;
18693;SDS011;9477;51.414;10.362;2023-03-23T09:48:31;2.30;;;1.40;;
18693;SDS011;9477;51.414;10.362;2023-03-23T09:50:40;1.93;;;1.50;;
18693;SDS011;9477;51.414;10.362;2023-03-23T09:52:46;2.67;;;1.60;;
18693;SDS011;9477;51.414;10.362;2023-03-23T09:54:53;4.50;;;1.70;;
18693;SDS011;9477;51.414;10.362;2023-03-23T09:56:57;2.60;;;1.50;;
18693;SDS011;9477;51.414;10.362;2023-03-23T09:59:02;2.67;;;1.70;;
18693;SDS011;9477;51.414;10.362;2023-03-23T10:01:15;4.60;;;1.63;;
18693;SDS011;9477;51.414;10.362;2023-03-23T10:03:21;3.40;;;1.60;;
18693;SDS011;9477;51.414;10.362;2023-03-23T10:05:31;2.73;;;1.60;;
18693;SDS011;9477;51.414;10.362;2023-03-23T10:07:34;2.57;;;1.43;;
18693;SDS011;9477;51.414;10.362;2023-03-23T10:09:39;3.47;;;1.83;;
18693;SDS011;9477;51.414;10.362;2023-03-23T10:11:44;2.50;;;1.50;;
18693;SDS011;9477;51.414;10.362;2023-03-23T10:13:59;3.57;;;1.40;;
18693;SDS011;9477;51.414;10.362;2023-03-23T10:16:17;2.40;;;1.40;;
18693;SDS011;9477;51.414;10.362;2023-03-23T10:18:23;2.03;;;1.40;;
18693;SDS011;9477;51.414;10.362;2023-03-23T10:20:32;3.23;;;1.50;;
18693;SDS011;9477;51.414;10.362;2023-03-23T10:22:39;3.43;;;1.67;;
18693;SDS011;9477;51.414;10.362;2023-03-23T10:24:48;5.23;;;1.30;;
18693;SDS011;9477;51.414;10.362;2023-03-23T10:26:55;1.97;;;1.50;;
18693;SDS011;9477;51.414;10.362;2023-03-23T10:29:08;3.00;;;1.40;;
18693;SDS011;9477;51.414;10.362;2023-03-23T10:31:15;3.83;;;1.30;;
18693;SDS011;9477;51.414;10.362;2023-03-23T10:33:22;4.97;;;1.80;;
18693;SDS011;9477;51.414;10.362;2023-03-23T10:35:33;10.27;;;2.67;;
18693;SDS011;9477;51.414;10.362;2023-03-23T10:37:39;3.00;;;1.50;;
18693;SDS011;9477;51.414;10.362;2023-03-23T10:39:48;3.33;;;1.63;;
18693;SDS011;9477;51.414;10.362;2023-03-23T10:41:52;3.30;;;1.60;;
18693;SDS011;9477;51.414;10.362;2023-03-23T10:43:54;1.50;;;1.27;;
18693;SDS011;9477;51.414;10.362;2023-03-23T10:45:57;2.40;;;1.40;;
18693;SDS011;9477;51.414;10.362;2023-03-23T10:48:06;2.17;;;1.20;;
18693;SDS011;9477;51.414;10.362;2023-03-23T10:50:12;4.97;;;1.50;;
18693;SDS011;9477;51.414;10.362;2023-03-23T10:52:27;1.47;;;1.23;;
18693;SDS011;9477;51.414;10.362;2023-03-23T10:54:35;3.40;;;1.30;;
18693;SDS011;9477;51.414;10.362;2023-03-23T10:56:40;1.80;;;1.20;;
18693;SDS011;9477;51.414;10.362;2023-03-23T10:58:44;2.80;;;1.50;;
18693;SDS011;9477;51.414;10.362;2023-03-23T11:00:46;3.80;;;1.40;;
18693;SDS011;9477;51.414;10.362;2023-03-23T11:02:57;1.63;;;1.20;;
18693;SDS011;9477;51.414;10.362;2023-03-23T11:05:02;2.80;;;1.30;;
18693;SDS011;9477;51.414;10.362;2023-03-23T11:07:12;3.30;;;1.40;;
18693;SDS011;9477;51.414;10.362;2023-03-23T11:09:21;1.97;;;1.20;;
18693;SDS011;9477;51.414;10.362;2023-03-23T11:11:36;2.40;;;1.20;;
18693;SDS011;9477;51.414;10.362;2023-03-23T11:13:44;2.03;;;1.20;;
18693;SDS011;9477;51.414;10.362;2023-03-23T11:15:48;2.83;;;1.50;;
18693;SDS011;9477;51.414;10.362;2023-03-23T11:17:57;1.43;;;1.13;;
18693;SDS011;9477;51.414;10.362;2023-03-23T11:20:09;2.00;;;1.20;;
18693;SDS011;9477;51.414;10.362;2023-03-23T11:22:13;2.40;;;1.47;;
18693;SDS011;9477;51.414;10.362;2023-03-23T11:24:25;2.33;;;1.20;;
18693;SDS011;9477;51.414;10.362;2023-03-23T11:26:28;2.10;;;1.40;;
18693;SDS011;9477;51.414;10.362;2023-03-23T11:28:32;3.27;;;1.27;;
18693;SDS011;9477;51.414;10.362;2023-03-23T11:30:39;2.10;;;1.30;;
18693;SDS011;9477;51.414;10.362;2023-03-23T11:32:42;4.83;;;1.47;;
18693;SDS011;9477;51.414;10.362;2023-03-23T11:34:45;3.30;;;1.40;;
18693;SDS011;9477;51.414;10.362;2023-03-23T11:36:50;5.10;;;1.50;;
18693;SDS011;9477;51.414;10.362;2023-03-23T11:38:54;3.17;;;1.40;;
18693;SDS011;9477;51.414;10.362;2023-03-23T11:40:57;1.93;;;1.20;;
18693;SDS011;9477;51.414;10.362;2023-03-23T11:43:01;7.67;;;1.33;;
18693;SDS011;9477;51.414;10.362;2023-03-23T11:45:15;5.50;;;1.70;;
18693;SDS011;9477;51.414;10.362;2023-03-23T11:47:23;2.33;;;1.33;;
18693;SDS011;9477;51.414;10.362;2023-03-23T11:49:41;2.70;;;1.37;;
18693;SDS011;9477;51.414;10.362;2023-03-23T11:51:48;2.63;;;1.40;;
18693;SDS011;9477;51.414;10.362;2023-03-23T11:53:54;2.83;;;1.20;;
18693;SDS011;9477;51.414;10.362;2023-03-23T11:56:05;13.17;;;5.97;;
18693;SDS011;9477;51.414;10.362;2023-03-23T11:58:13;72.90;;;32.17;;
18693;SDS011;9477;51.414;10.362;2023-03-23T12:00:18;59.67;;;26.10;;
18693;SDS011;9477;51.414;10.362;2023-03-23T12:02:32;117.43;;;49.00;;
18693;SDS011;9477;51.414;10.362;2023-03-23T12:04:46;52.13;;;24.13;;
18693;SDS011;9477;51.414;10.362;2023-03-23T12:07:03;63.47;;;24.67;;
18693;SDS011;9477;51.414;10.362;2023-03-23T12:09:15;40.73;;;18.13;;
18693;SDS011;9477;51.414;10.362;2023-03-23T12:11:30;11.47;;;6.70;;
18693;SDS011;9477;51.414;10.362;2023-03-23T12:13:42;82.67;;;40.90;;
18693;SDS011;9477;51.414;10.362;2023-03-23T12:15:58;18.83;;;10.43;;
18693;SDS011;9477;51.414;10.362;2023-03-23T12:18:09;96.93;;;44.70;;
18693;SDS011;9477;51.414;10.362;2023-03-23T12:20:21;52.07;;;25.80;;
18693;SDS011;9477;51.414;10.362;2023-03-23T12:22:34;42.00;;;20.77;;
18693;SDS011;9477;51.414;10.362;2023-03-23T12:24:47;55.57;;;26.40;;
18693;SDS011;9477;51.414;10.362;2023-03-23T12:27:00;17.13;;;11.20;;
18693;SDS011;9477;51.414;10.362;2023-03-23T12:31:37;14.67;;;11.83;;
18693;SDS011;9477;51.414;10.362;2023-03-23T12:33:50;5.10;;;3.20;;